Airfield :
LOGIN :

Register | Disclaimer

   EN    FR    IT 

 










Legend :    VFR   Marginal VFR   IFR   Intensive IFR   Very Intensive IFR
Visi :
Ceiling :
>= 8 km
>= 3000ft
5 to 8 km
1000 to 3000 ft
1500m to 5 km
500 to 1000 ft
800 to 1500m
200 to 500 ft
< 800m
< 200 ft
Symbols :   Thunderstorms  Fog  Heavy snow  Heavy precipitations  Wind > 20 kt
SIGMETs :     Misc.  Thunderstorms  Icing  Turbulence  Mountain Waves  Volcanic Ashes







- Airport Elevation : 1682 ft
- IATA code : VIT


LEVT - Vitoria Gasteiz

CURRENT METAR :
  • 212130Z 05004KT 360V080 9999 SCT009 BKN016 18/17 Q1024

EXPIRED METARs :
  • 212100Z 01008KT 350V060 9999 BKN016 18/17 Q1023
  • 212030Z 03007KT 360V060 9999 BKN016 18/16 Q1023
  • 212000Z 36008KT 9999 BKN017 19/16 Q1023
  • 211930Z 01010KT 340V050 9999 BKN019 19/16 Q1022
  • 211900Z 02010KT 340V050 9999 BKN019 20/16 Q1022
  • 211830Z 01011KT 350V050 9999 BKN020 20/17 Q1022

TAF TAF LEVT
Valid from the 21 at 18:00 until the 22 at 18:00 UTC


211700Z 2118/2218 36012KT 9999 SCT012 BKN018 TX23/2213Z TN10/2204Z
BECMG 2120/2123 VRB04KT
TEMPO 2121/2210 BKN010
TEMPO 2200/2207 3000 -DZ BR BKN005
PROB40
TEMPO 2202/2205 1200 DZ BR BKN003
BECMG 2210/2213 01012KT
No reported NOTAMs for that airfield.
1 SIGMET reported for the Madrid FIR (LECM) :
 
Embedded thunderstorms
LECM SIGMET 7 VALID 212115/212300 LEVA
LECM MADRID FIR/UIR EMBD TS OBS AT 2115Z WI N3910 W00713 - N3855 W00502 - N4259 W00458 - N4259 W00740 - N4143 W00616 - N3910 W00713 TOP FL360 MOV NW 10KT NC=



MET'MAP, your aeronautical weather chart ! - Copyright ORBIFLY December 2007 - Disclaimer

ORBIFLY MET'MAP TEAM :

Programming & Development : Alexandra Zaïnal
Concept & Development : Baudouin d'Aumeries
Co-Development & Prog : Marc-Olivier Méhu
Technical & hardware support : Manuel Goepfert

Contact : metmap@orbifly.com




SOURCES & CREDITS :

   NOAA